Time;durP1;ratioP1;P1;durP2;ratioP2;P2;SDS_P1;SDS_P2;PMS_P1;PMS_P2;Temp;Humidity;BMP_temperature;BMP_pressure;BME280_temperature;BME280_humidity;BME280_pressure;Samples;Min_cycle;Max_cycle;Signal;HPM_P1;HPM_P2
2024/01/01 04:02:41;;;;;;;3.85;3.30;;;25.00;27.90;;;;;;4965881;22;46635;-39
2024/01/01 04:05:07;;;;;;;3.33;3.03;;;25.00;27.90;;;;;;4958024;28;45897;-39
2024/01/01 04:07:37;;;;;;;4.30;3.28;;;25.00;27.90;;;;;;4953336;28;45231;-40
2024/01/01 04:10:06;;;;;;;3.97;3.10;;;25.00;27.90;;;;;;4957660;28;45211;-39
2024/01/01 04:12:34;;;;;;;3.63;3.08;;;25.00;27.90;;;;;;4950409;28;63610;-40
2024/01/01 04:15:00;;;;;;;3.47;3.00;;;25.00;27.90;;;;;;4969456;28;45237;-39
2024/01/01 04:17:26;;;;;;;3.45;3.15;;;25.00;27.90;;;;;;4955101;28;45371;-40
2024/01/01 04:19:51;;;;;;;3.67;3.20;;;25.00;27.90;;;;;;4958953;28;46240;-39
2024/01/01 04:22:18;;;;;;;3.40;3.00;;;25.00;27.90;;;;;;4947473;28;45331;-39
2024/01/01 04:24:43;;;;;;;3.60;3.10;;;25.00;27.90;;;;;;4972084;28;45251;-38
2024/01/01 04:27:09;;;;;;;3.28;2.97;;;24.90;27.90;;;;;;4967640;28;45716;-40
2024/01/01 04:29:35;;;;;;;4.22;3.13;;;24.90;27.90;;;;;;4963389;28;45186;-39
2024/01/01 04:32:00;;;;;;;3.80;3.10;;;24.90;27.90;;;;;;4952591;28;45568;-39
2024/01/01 04:34:26;;;;;;;3.13;2.83;;;25.00;27.90;;;;;;4972115;28;45150;-41
2024/01/01 04:36:51;;;;;;;3.73;3.17;;;24.90;27.90;;;;;;4965677;28;45756;-40
2024/01/01 04:39:18;;;;;;;3.30;3.00;;;24.90;27.90;;;;;;4959415;28;45515;-38
2024/01/01 04:41:44;;;;;;;3.55;3.10;;;24.90;27.90;;;;;;4961649;28;45247;-39
2024/01/01 04:44:09;;;;;;;3.72;3.10;;;24.90;27.90;;;;;;4972189;28;45447;-39
2024/01/01 04:46:35;;;;;;;3.90;2.92;;;24.90;27.90;;;;;;4950259;28;45449;-39
2024/01/01 04:49:00;;;;;;;3.70;3.00;;;24.90;27.90;;;;;;4977656;28;46441;-40
2024/01/01 04:51:26;;;;;;;3.63;3.33;;;24.90;27.90;;;;;;4958825;28;45268;-39
2024/01/01 04:53:51;;;;;;;3.40;3.07;;;24.90;27.90;;;;;;4975120;28;45569;-38
2024/01/01 04:56:17;;;;;;;3.30;3.00;;;24.90;28.00;;;;;;4948688;28;46203;-39
2024/01/01 04:58:45;;;;;;;3.53;3.10;;;24.90;27.90;;;;;;4954729;28;45655;-40
2024/01/01 05:01:11;;;;;;;3.42;3.10;;;24.90;27.90;;;;;;4941102;28;45789;-39
2024/01/01 05:03:36;;;;;;;3.22;2.92;;;24.90;27.90;;;;;;4968334;28;45461;-39
2024/01/01 05:06:02;;;;;;;3.28;2.90;;;24.90;27.90;;;;;;4965876;28;45582;-39
2024/01/01 05:08:28;;;;;;;4.90;3.30;;;24.90;27.90;;;;;;4971334;28;47075;-38
2024/01/01 05:10:53;;;;;;;3.28;2.80;;;24.80;27.90;;;;;;4961870;28;45233;-39
2024/01/01 05:13:19;;;;;;;3.30;2.90;;;24.80;27.90;;;;;;4973878;28;45463;-38
2024/01/01 05:15:44;;;;;;;3.80;3.10;;;24.80;27.90;;;;;;4955884;28;45511;-40
2024/01/01 05:18:10;;;;;;;3.67;3.20;;;24.80;27.90;;;;;;4970769;28;45390;-39
2024/01/01 05:20:35;;;;;;;3.83;3.07;;;24.80;27.90;;;;;;4952247;28;45162;-39
2024/01/01 05:23:01;;;;;;;3.13;2.83;;;24.80;27.90;;;;;;4977036;28;45344;-39
2024/01/01 05:25:26;;;;;;;3.00;2.70;;;24.80;27.90;;;;;;4964611;28;45174;-40
2024/01/01 05:27:52;;;;;;;3.20;2.85;;;24.80;27.90;;;;;;4947096;28;46710;-38
2024/01/01 05:30:18;;;;;;;3.07;2.73;;;24.80;27.90;;;;;;4942340;28;45411;-39
2024/01/01 05:32:43;;;;;;;3.57;2.97;;;24.80;27.90;;;;;;4920977;28;45301;-40
2024/01/01 05:35:09;;;;;;;4.40;3.00;;;24.80;27.90;;;;;;4970870;28;45020;-39
2024/01/01 05:37:35;;;;;;;3.77;3.00;;;24.80;27.90;;;;;;4960192;28;46319;-40
2024/01/01 05:40:00;;;;;;;3.00;2.70;;;24.80;27.90;;;;;;4965832;28;45271;-40
2024/01/01 05:42:26;;;;;;;3.70;2.60;;;24.80;27.90;;;;;;4940863;28;45438;-38
2024/01/01 05:44:51;;;;;;;3.40;2.85;;;24.80;27.90;;;;;;4976164;28;45615;-40
2024/01/01 05:47:17;;;;;;;3.03;2.60;;;24.80;27.90;;;;;;4956585;28;45587;-40
2024/01/01 05:49:43;;;;;;;3.22;2.80;;;24.80;27.90;;;;;;4947430;28;45444;-38
2024/01/01 05:52:08;;;;;;;3.50;3.00;;;24.80;27.90;;;;;;4963104;28;45207;-39
2024/01/01 05:54:34;;;;;;;3.77;2.93;;;24.80;27.90;;;;;;4967599;28;45600;-39
2024/01/01 05:56:59;;;;;;;3.20;2.75;;;24.80;27.90;;;;;;4945831;28;45196;-39
2024/01/01 05:59:25;;;;;;;3.53;3.03;;;24.80;28.00;;;;;;4968276;28;45356;-38
2024/01/01 06:01:50;;;;;;;3.08;2.63;;;24.70;27.90;;;;;;4950821;28;45401;-39
2024/01/01 06:04:16;;;;;;;3.00;2.70;;;24.70;27.90;;;;;;4975247;28;45338;-40
2024/01/01 06:06:41;;;;;;;3.38;3.08;;;24.70;27.90;;;;;;4962057;28;44905;-39
2024/01/01 06:09:07;;;;;;;3.00;2.67;;;24.70;27.90;;;;;;4968862;28;46283;-38
2024/01/01 06:11:34;;;;;;;3.78;2.65;;;24.70;27.90;;;;;;4946689;28;45415;-39
2024/01/01 06:13:59;;;;;;;3.10;2.80;;;24.70;28.00;;;;;;4930572;28;45573;-39
2024/01/01 06:16:25;;;;;;;2.92;2.60;;;24.70;28.00;;;;;;4936928;28;45182;-40
2024/01/01 06:18:51;;;;;;;3.60;2.63;;;24.70;28.00;;;;;;4962436;28;45277;-39
2024/01/01 06:21:16;;;;;;;2.97;2.53;;;24.70;28.00;;;;;;4960907;28;45536;-38
2024/01/01 06:23:45;;;;;;;3.38;2.70;;;24.70;28.00;;;;;;4969142;28;45533;-39
2024/01/01 06:26:11;;;;;;;3.83;2.77;;;24.70;28.00;;;;;;4960914;28;46694;-39
2024/01/01 06:28:37;;;;;;;3.03;2.70;;;24.70;28.00;;;;;;4967367;28;52518;-39
2024/01/01 06:31:03;;;;;;;3.47;2.97;;;24.70;28.00;;;;;;4947276;28;45639;-39
2024/01/01 06:33:29;;;;;;;3.38;2.95;;;24.60;28.00;;;;;;4966797;28;45550;-39
2024/01/01 06:35:55;;;;;;;3.10;2.70;;;24.60;28.00;;;;;;4961629;28;45759;-39
2024/01/01 06:38:21;;;;;;;3.50;2.53;;;24.60;28.00;;;;;;4976477;28;45216;-39
2024/01/01 06:40:46;;;;;;;3.10;2.50;;;24.60;28.00;;;;;;4957517;28;46425;-39
2024/01/01 06:43:12;;;;;;;3.03;2.75;;;24.60;28.00;;;;;;4967083;28;45336;-38
2024/01/01 06:45:38;;;;;;;2.75;2.45;;;24.60;28.10;;;;;;4946127;28;46040;-41
2024/01/01 06:48:03;;;;;;;3.00;2.58;;;24.60;28.10;;;;;;4947942;28;44741;-39
2024/01/01 06:50:30;;;;;;;3.25;2.65;;;24.60;28.10;;;;;;4958501;28;45600;-39
2024/01/01 06:52:55;;;;;;;2.93;2.47;;;24.60;28.10;;;;;;4975717;28;44829;-39
2024/01/01 06:55:22;;;;;;;2.80;2.50;;;24.60;28.10;;;;;;4961999;28;45855;-39
2024/01/01 06:57:48;;;;;;;3.23;2.60;;;24.60;28.10;;;;;;4974796;28;45251;-39
2024/01/01 07:00:15;;;;;;;3.95;2.60;;;24.50;28.10;;;;;;4961375;28;45293;-38
2024/01/01 07:02:41;;;;;;;3.00;2.45;;;24.50;28.10;;;;;;4960723;28;45275;-39
2024/01/01 07:05:07;;;;;;;3.00;2.47;;;24.60;28.10;;;;;;4960893;28;45341;-38
2024/01/01 07:07:33;;;;;;;3.15;2.50;;;24.50;28.10;;;;;;4971444;28;45464;-39
2024/01/01 07:09:59;;;;;;;2.83;2.30;;;24.50;28.10;;;;;;4973111;28;45785;-38
2024/01/01 07:12:27;;;;;;;3.28;2.50;;;24.50;28.10;;;;;;4956900;28;45640;-40
2024/01/01 07:14:53;;;;;;;3.83;2.47;;;24.50;28.10;;;;;;4975915;28;44942;-39
2024/01/01 07:17:19;;;;;;;2.60;2.20;;;24.50;28.10;;;;;;4942541;28;45403;-39
2024/01/01 07:19:44;;;;;;;2.90;2.40;;;24.50;28.20;;;;;;4957835;28;45282;-40
2024/01/01 07:22:10;;;;;;;3.00;2.60;;;24.50;28.20;;;;;;4952609;28;45685;-41
2024/01/01 07:24:36;;;;;;;2.55;2.35;;;24.50;28.20;;;;;;4929505;28;50835;-39
2024/01/01 07:27:01;;;;;;;3.50;2.40;;;24.50;28.20;;;;;;4965678;28;46600;-38
2024/01/01 07:29:28;;;;;;;3.33;2.23;;;24.50;28.20;;;;;;4938579;28;45709;-38
2024/01/01 07:31:54;;;;;;;4.20;2.50;;;24.50;28.20;;;;;;4935062;28;45816;-39
2024/01/01 07:34:20;;;;;;;3.15;2.05;;;24.50;28.20;;;;;;4964113;28;46507;-39
2024/01/01 07:36:46;;;;;;;2.85;2.10;;;24.50;28.20;;;;;;4958400;28;47224;-37
2024/01/01 07:39:12;;;;;;;3.10;2.22;;;24.50;28.20;;;;;;4975821;28;45598;-39
2024/01/01 07:41:38;;;;;;;2.80;2.20;;;24.40;28.20;;;;;;4943374;28;45211;-39
2024/01/01 07:44:04;;;;;;;2.70;1.92;;;24.40;28.20;;;;;;4957042;28;46333;-38
2024/01/01 07:46:29;;;;;;;3.30;2.30;;;24.40;28.30;;;;;;4952520;28;45799;-39
2024/01/01 07:48:55;;;;;;;3.67;2.20;;;24.40;28.30;;;;;;4961683;28;45281;-39
2024/01/01 07:51:21;;;;;;;3.03;2.17;;;24.40;28.30;;;;;;4949717;28;45401;-38
2024/01/01 07:53:48;;;;;;;2.60;2.03;;;24.40;28.30;;;;;;4952517;28;45826;-38
2024/01/01 07:56:14;;;;;;;2.85;2.10;;;24.40;28.30;;;;;;4962583;28;45479;-39
2024/01/01 07:58:39;;;;;;;3.07;2.37;;;24.40;28.30;;;;;;4973587;28;45460;-39
2024/01/01 08:01:06;;;;;;;2.33;1.90;;;24.40;28.30;;;;;;4960824;28;45494;-37
2024/01/01 08:03:32;;;;;;;3.73;2.10;;;24.40;28.30;;;;;;4972035;28;45644;-38
2024/01/01 08:05:57;;;;;;;2.47;2.03;;;24.30;28.30;;;;;;4954693;28;45440;-38
2024/01/01 08:08:23;;;;;;;2.60;1.93;;;24.30;28.20;;;;;;4973841;28;45670;-39
2024/01/01 08:10:49;;;;;;;3.20;1.97;;;24.30;28.30;;;;;;4966761;28;45813;-39
2024/01/01 08:13:14;;;;;;;2.42;1.80;;;24.30;28.30;;;;;;4969964;28;45555;-37
2024/01/01 08:15:40;;;;;;;2.70;1.90;;;24.30;28.30;;;;;;4934627;28;45218;-38
2024/01/01 08:18:06;;;;;;;2.40;2.00;;;24.30;28.30;;;;;;4969138;28;45190;-38
2024/01/01 08:20:31;;;;;;;2.90;2.08;;;24.30;28.30;;;;;;4960212;28;45385;-38
2024/01/01 08:22:57;;;;;;;2.73;2.10;;;24.30;28.80;;;;;;4952546;28;45122;-39
2024/01/01 08:25:23;;;;;;;2.47;2.03;;;24.30;28.30;;;;;;4943263;28;45884;-39
2024/01/01 08:27:49;;;;;;;2.75;1.85;;;24.30;28.30;;;;;;4967405;28;45355;-39
2024/01/01 08:30:14;;;;;;;2.78;2.00;;;24.30;28.30;;;;;;4938056;28;45450;-38
2024/01/01 08:32:40;;;;;;;2.53;1.83;;;24.30;28.40;;;;;;4941089;28;45801;-40
2024/01/01 08:35:07;;;;;;;2.30;1.90;;;24.30;28.40;;;;;;4951571;28;45269;-37
2024/01/01 08:37:32;;;;;;;1.90;1.60;;;24.20;28.40;;;;;;4955985;28;46403;-38
2024/01/01 08:39:58;;;;;;;2.00;1.55;;;24.20;28.90;;;;;;4976519;28;46663;-39
2024/01/01 08:42:24;;;;;;;2.60;1.73;;;24.20;28.40;;;;;;4957436;28;46053;-39
2024/01/01 08:44:50;;;;;;;2.00;1.70;;;24.20;28.40;;;;;;4969106;28;45522;-38
2024/01/01 08:47:15;;;;;;;2.23;1.83;;;24.20;28.40;;;;;;4947958;28;45422;-39
2024/01/01 08:49:41;;;;;;;2.43;1.70;;;24.20;28.40;;;;;;4972100;28;45560;-38
2024/01/01 08:52:07;;;;;;;1.67;1.50;;;24.20;28.40;;;;;;4951449;28;46406;-40
2024/01/01 08:54:33;;;;;;;2.63;1.77;;;24.20;28.50;;;;;;4970414;28;45383;-40
2024/01/01 08:56:58;;;;;;;3.05;2.00;;;24.20;28.50;;;;;;4958206;28;45340;-43
2024/01/01 08:59:24;;;;;;;3.27;1.63;;;24.20;28.50;;;;;;4970602;28;45468;-41
2024/01/01 09:01:49;;;;;;;2.20;1.70;;;24.20;28.50;;;;;;4950222;28;46073;-41
2024/01/01 09:04:17;;;;;;;1.93;1.70;;;24.20;28.50;;;;;;4960516;28;44843;-40
2024/01/01 09:06:43;;;;;;;3.13;1.80;;;24.10;28.50;;;;;;4944271;28;45019;-42
2024/01/01 09:09:10;;;;;;;2.40;1.67;;;24.20;28.50;;;;;;4967176;28;45620;-42
2024/01/01 09:11:35;;;;;;;2.13;1.65;;;24.10;28.50;;;;;;4960191;28;45308;-40
2024/01/01 09:14:01;;;;;;;1.77;1.40;;;24.20;28.60;;;;;;4974290;28;45153;-42
2024/01/01 09:16:31;;;;;;;2.45;1.63;;;24.10;28.50;;;;;;4955494;28;45500;-40
2024/01/01 09:18:57;;;;;;;2.07;1.70;;;24.10;28.50;;;;;;4968998;28;45090;-41
2024/01/01 09:21:26;;;;;;;2.38;1.52;;;24.10;28.50;;;;;;4963438;28;45228;-41
2024/01/01 09:23:57;;;;;;;2.30;1.65;;;24.10;28.60;;;;;;4968484;28;45067;-41
2024/01/01 09:26:24;;;;;;;2.97;1.63;;;24.10;28.60;;;;;;4953691;28;45208;-40
2024/01/01 09:28:50;;;;;;;2.20;1.57;;;24.10;28.60;;;;;;4946011;28;45423;-40
2024/01/01 09:31:15;;;;;;;1.90;1.48;;;24.10;28.60;;;;;;4934491;28;45403;-41
2024/01/01 09:33:41;;;;;;;2.03;1.53;;;24.10;28.60;;;;;;4974738;28;45381;-41
2024/01/01 09:36:07;;;;;;;1.83;1.50;;;24.10;28.60;;;;;;4962878;28;45225;-41
2024/01/01 09:38:32;;;;;;;1.98;1.42;;;24.10;28.70;;;;;;4952030;28;45833;-39
2024/01/01 09:40:58;;;;;;;2.65;1.50;;;24.10;28.70;;;;;;4944109;28;45589;-41
2024/01/01 09:43:23;;;;;;;1.77;1.35;;;24.10;28.70;;;;;;4953750;28;46199;-37
2024/01/01 09:45:49;;;;;;;1.48;1.23;;;24.00;28.60;;;;;;4962536;28;45320;-40
2024/01/01 09:48:15;;;;;;;1.70;1.27;;;24.10;28.70;;;;;;4942316;28;45225;-40
2024/01/01 09:50:42;;;;;;;1.77;1.25;;;24.00;28.60;;;;;;4947808;28;45242;-41
2024/01/01 09:53:08;;;;;;;2.88;1.33;;;24.00;28.70;;;;;;4975136;28;45312;-41
2024/01/01 09:55:33;;;;;;;2.28;1.38;;;24.00;28.70;;;;;;4968711;28;45276;-41
2024/01/01 09:57:59;;;;;;;2.95;1.45;;;24.00;28.70;;;;;;4971504;28;45229;-42
2024/01/01 10:00:25;;;;;;;2.25;1.30;;;24.00;28.80;;;;;;4952534;28;45857;-42
2024/01/01 10:02:51;;;;;;;2.03;1.23;;;23.90;28.70;;;;;;4969534;28;45239;-41
2024/01/01 10:05:16;;;;;;;2.63;1.27;;;23.90;28.80;;;;;;4948401;28;45638;-45
2024/01/01 10:07:44;;;;;;;1.77;1.20;;;23.90;28.80;;;;;;4957584;28;46021;-44
2024/01/01 10:10:10;;;;;;;2.15;1.10;;;23.90;28.80;;;;;;4968788;28;45971;-45
2024/01/01 10:12:36;;;;;;;1.75;1.10;;;23.90;28.80;;;;;;4973045;28;45440;-43
2024/01/01 10:15:02;;;;;;;2.43;1.20;;;23.90;28.80;;;;;;4975032;28;45301;-44
2024/01/01 10:17:28;;;;;;;1.90;1.20;;;23.90;28.80;;;;;;4922228;28;45772;-45
2024/01/01 10:19:56;;;;;;;2.23;1.10;;;23.90;28.80;;;;;;4907325;28;45470;-46
2024/01/01 10:22:23;;;;;;;2.40;1.10;;;23.90;28.80;;;;;;4965775;28;45416;-42
2024/01/01 10:24:52;;;;;;;2.10;1.20;;;23.90;28.90;;;;;;4973237;28;45499;-43
2024/01/01 10:27:18;;;;;;;1.98;1.20;;;23.90;28.90;;;;;;4967830;28;45828;-44
2024/01/01 10:29:47;;;;;;;2.40;1.20;;;23.90;28.90;;;;;;4975292;28;46518;-44
2024/01/01 10:32:17;;;;;;;2.58;1.15;;;23.90;28.90;;;;;;4938976;28;45420;-44
2024/01/01 10:34:46;;;;;;;2.15;1.08;;;23.80;28.90;;;;;;4945942;28;45789;-44
2024/01/01 10:37:15;;;;;;;1.20;0.70;;;23.80;28.80;;;;;;4954155;28;45373;-43
2024/01/01 10:39:41;;;;;;;2.67;1.20;;;23.80;28.90;;;;;;4950718;28;45214;-44
2024/01/01 10:42:09;;;;;;;3.03;1.20;;;23.80;28.90;;;;;;4961900;28;45361;-44
2024/01/01 10:44:34;;;;;;;1.88;1.00;;;23.80;28.90;;;;;;4977868;28;45174;-43
2024/01/01 10:47:00;;;;;;;2.93;1.17;;;23.80;28.90;;;;;;4935283;28;45350;-42
2024/01/01 10:49:32;;;;;;;2.87;1.20;;;23.80;28.90;;;;;;4942838;28;45539;-44
2024/01/01 10:52:35;;;;;;;2.72;1.30;;;23.80;28.90;;;;;;4965001;28;45394;-43
2024/01/01 10:55:19;;;;;;;3.42;1.20;;;23.80;28.90;;;;;;4978107;28;45317;-42
2024/01/01 10:58:02;;;;;;;2.47;1.00;;;23.80;28.90;;;;;;4965370;28;45268;-42
2024/01/01 11:00:36;;;;;;;2.05;1.10;;;23.80;28.90;;;;;;4950584;28;46412;-44
2024/01/01 11:03:01;;;;;;;2.38;1.10;;;23.80;28.90;;;;;;4944503;28;45149;-42
2024/01/01 11:05:33;;;;;;;2.25;1.40;;;23.80;29.00;;;;;;4932903;28;45264;-45
2024/01/01 11:08:00;;;;;;;4.40;2.10;;;23.70;29.00;;;;;;4952783;28;45834;-44
2024/01/01 11:10:42;;;;;;;3.10;1.90;;;23.70;29.00;;;;;;4949044;28;46901;-44
2024/01/01 11:13:26;;;;;;;4.07;2.47;;;23.70;29.00;;;;;;4953479;28;45174;-43
2024/01/01 11:16:03;;;;;;;4.70;2.53;;;23.80;29.00;;;;;;4926238;28;45340;-42
2024/01/01 11:18:32;;;;;;;5.70;2.67;;;23.70;29.00;;;;;;4954583;28;45777;-42
2024/01/01 11:21:01;;;;;;;5.05;2.95;;;23.70;29.00;;;;;;4925145;28;46009;-43
2024/01/01 11:23:44;;;;;;;3.95;2.90;;;23.70;29.10;;;;;;4951175;28;45209;-42
2024/01/01 11:26:22;;;;;;;5.18;3.45;;;23.70;29.50;;;;;;4940862;28;45522;-42
2024/01/01 11:28:58;;;;;;;5.55;2.95;;;23.70;29.10;;;;;;4949217;28;45270;-42
2024/01/01 11:31:24;;;;;;;6.30;3.60;;;23.70;29.00;;;;;;4934153;28;45792;-43
2024/01/01 11:34:07;;;;;;;5.10;3.00;;;23.70;29.10;;;;;;4937755;28;45694;-44
2024/01/01 11:36:33;;;;;;;4.70;3.15;;;23.70;29.10;;;;;;4945106;28;45363;-43
2024/01/01 11:38:59;;;;;;;5.15;3.22;;;23.70;29.10;;;;;;4954440;28;45298;-44
2024/01/01 11:41:29;;;;;;;4.70;3.07;;;23.70;29.10;;;;;;4948738;28;46283;-42
2024/01/01 11:43:54;;;;;;;5.07;2.88;;;23.70;29.10;;;;;;4956752;28;45416;-43
2024/01/01 11:46:24;;;;;;;5.15;3.38;;;23.70;29.10;;;;;;4940409;28;45227;-42
2024/01/01 11:48:58;;;;;;;4.10;2.75;;;23.70;29.20;;;;;;4964118;28;45412;-42
2024/01/01 11:51:24;;;;;;;5.47;2.88;;;23.60;29.10;;;;;;4930536;28;48220;-43
2024/01/01 11:54:08;;;;;;;4.72;2.75;;;23.60;29.10;;;;;;4953640;28;46351;-42
2024/01/01 11:56:33;;;;;;;5.38;2.70;;;23.60;29.10;;;;;;4948008;28;45390;-43
2024/01/01 11:58:59;;;;;;;4.18;2.33;;;23.60;29.20;;;;;;4951278;28;45783;-45
2024/01/01 12:01:25;;;;;;;4.53;2.70;;;23.60;29.20;;;;;;4935654;28;45362;-43
2024/01/01 12:03:50;;;;;;;4.53;2.80;;;23.60;29.30;;;;;;4947560;28;45407;-46
2024/01/01 12:06:16;;;;;;;4.03;2.40;;;23.60;29.20;;;;;;4926355;28;45373;-42
2024/01/01 12:08:42;;;;;;;3.87;2.30;;;23.60;29.30;;;;;;4953858;28;45355;-46
2024/01/01 12:11:07;;;;;;;5.03;2.60;;;23.60;29.50;;;;;;4944414;28;46379;-42
2024/01/01 12:13:33;;;;;;;5.13;2.47;;;23.60;29.30;;;;;;4957095;28;45379;-44
2024/01/01 12:16:15;;;;;;;5.82;2.92;;;23.60;29.30;;;;;;4933457;28;45363;-44
2024/01/01 12:18:40;;;;;;;5.33;3.00;;;23.60;29.30;;;;;;4947240;28;45155;-42
2024/01/01 12:21:06;;;;;;;6.97;3.13;;;23.60;29.30;;;;;;4947952;28;45870;-46
2024/01/01 12:23:31;;;;;;;6.47;3.13;;;23.60;29.30;;;;;;4916889;28;44950;-44
2024/01/01 12:26:04;;;;;;;7.20;3.37;;;23.60;29.30;;;;;;4920157;28;45599;-46
2024/01/01 12:28:29;;;;;;;6.80;2.95;;;23.60;29.30;;;;;;4952095;28;45685;-43
2024/01/01 12:30:55;;;;;;;6.03;2.88;;;23.70;29.30;;;;;;4929847;28;45431;-44
2024/01/01 12:33:20;;;;;;;6.05;2.80;;;23.60;29.30;;;;;;4928390;28;45899;-41
2024/01/01 12:35:46;;;;;;;6.00;2.75;;;23.60;29.30;;;;;;4948792;28;45189;-40
2024/01/01 12:38:11;;;;;;;4.90;2.55;;;23.70;29.30;;;;;;4950803;28;45286;-40
2024/01/01 12:40:37;;;;;;;5.75;2.83;;;23.70;29.30;;;;;;4945520;28;45807;-40
2024/01/01 12:43:03;;;;;;;5.18;2.58;;;23.70;29.30;;;;;;4954661;28;45370;-40
2024/01/01 12:45:28;;;;;;;6.65;2.78;;;23.70;29.30;;;;;;4941129;28;45879;-40
2024/01/01 12:47:54;;;;;;;6.07;2.70;;;23.70;29.30;;;;;;4954579;28;45445;-39
2024/01/01 12:50:20;;;;;;;6.55;3.17;;;23.70;29.30;;;;;;4925727;28;45549;-40
2024/01/01 12:52:45;;;;;;;5.55;2.60;;;23.70;29.30;;;;;;4951830;28;45311;-39
2024/01/01 12:55:11;;;;;;;6.18;2.65;;;23.70;29.30;;;;;;4949641;28;46836;-39
2024/01/01 12:57:36;;;;;;;6.55;2.38;;;23.70;29.30;;;;;;4945671;28;45620;-40
2024/01/01 13:00:09;;;;;;;4.97;2.38;;;23.80;29.30;;;;;;4954394;28;45040;-39
2024/01/01 13:02:35;;;;;;;5.22;2.33;;;23.80;29.30;;;;;;4945829;28;46003;-41
2024/01/01 13:05:03;;;;;;;4.50;2.27;;;23.80;29.30;;;;;;4954460;28;45262;-40
2024/01/01 13:07:30;;;;;;;5.30;2.30;;;23.80;29.30;;;;;;4935081;28;45772;-40
2024/01/01 13:09:56;;;;;;;5.10;2.03;;;23.90;29.40;;;;;;4960492;28;45887;-43
2024/01/01 13:12:22;;;;;;;4.77;2.30;;;23.90;29.40;;;;;;4940591;28;45166;-40
2024/01/01 13:14:48;;;;;;;5.75;2.05;;;23.90;29.40;;;;;;4953659;28;45217;-39
2024/01/01 13:17:13;;;;;;;4.72;2.00;;;23.90;29.30;;;;;;4934238;28;45452;-41
2024/01/01 13:19:39;;;;;;;4.82;2.15;;;24.00;29.30;;;;;;4952670;28;45468;-40
2024/01/01 13:22:05;;;;;;;4.50;1.90;;;24.00;29.30;;;;;;4921626;28;44800;-42
2024/01/01 13:24:33;;;;;;;4.00;1.70;;;24.00;29.80;;;;;;4939686;28;50207;-40
2024/01/01 13:26:59;;;;;;;4.53;1.98;;;24.00;29.30;;;;;;4932468;28;45788;-39
2024/01/01 13:29:25;;;;;;;4.60;1.70;;;24.10;29.30;;;;;;4950085;28;45329;-40
2024/01/01 13:31:51;;;;;;;4.88;2.08;;;24.10;29.30;;;;;;4931861;28;44879;-42
2024/01/01 13:34:17;;;;;;;3.90;1.70;;;24.10;29.30;;;;;;4930467;28;45535;-42
2024/01/01 13:36:42;;;;;;;4.80;1.90;;;24.10;29.20;;;;;;4922227;28;45462;-41
2024/01/01 13:39:08;;;;;;;5.70;1.60;;;24.10;29.20;;;;;;4950814;28;46631;-39
2024/01/01 13:41:34;;;;;;;3.70;1.60;;;24.20;29.20;;;;;;4945948;28;45716;-40
2024/01/01 13:43:59;;;;;;;3.93;1.60;;;24.20;29.20;;;;;;4949189;28;45456;-40
2024/01/01 13:46:25;;;;;;;4.30;1.77;;;24.20;29.20;;;;;;4932358;28;46245;-40
2024/01/01 13:48:50;;;;;;;4.87;1.60;;;24.30;29.20;;;;;;4956103;28;45486;-41
2024/01/01 13:51:16;;;;;;;4.63;1.50;;;24.30;29.20;;;;;;4921165;28;45675;-40
2024/01/01 13:53:42;;;;;;;3.93;1.77;;;24.30;29.20;;;;;;4957862;28;45368;-39
2024/01/01 13:56:08;;;;;;;3.75;1.50;;;24.30;29.20;;;;;;4948239;28;45284;-41
2024/01/01 13:58:34;;;;;;;3.50;1.83;;;24.40;29.20;;;;;;4949437;28;45999;-39
2024/01/01 14:01:00;;;;;;;4.30;1.58;;;24.40;29.10;;;;;;4936751;28;48585;-40
2024/01/01 14:03:26;;;;;;;2.95;1.60;;;24.40;29.10;;;;;;4964058;28;45322;-39
2024/01/01 14:05:52;;;;;;;3.55;1.45;;;24.40;29.10;;;;;;4962961;28;44864;-39
2024/01/01 14:08:18;;;;;;;2.65;1.40;;;24.50;29.10;;;;;;4951389;28;46322;-39
2024/01/01 14:10:43;;;;;;;4.23;2.00;;;24.50;29.10;;;;;;4959421;28;45800;-41
2024/01/01 14:13:09;;;;;;;4.68;1.80;;;24.50;29.00;;;;;;4964906;28;47083;-39
2024/01/01 14:15:38;;;;;;;4.53;1.83;;;24.50;29.00;;;;;;4968280;28;45242;-41
2024/01/01 14:18:04;;;;;;;4.32;1.75;;;24.60;29.00;;;;;;4969888;28;46034;-39
2024/01/01 14:20:30;;;;;;;3.75;1.70;;;24.60;29.00;;;;;;4954307;28;45889;-40
2024/01/01 14:22:57;;;;;;;4.25;1.65;;;24.70;29.00;;;;;;4954224;28;45693;-39
2024/01/01 14:25:23;;;;;;;5.30;2.00;;;24.70;28.90;;;;;;4929872;28;45363;-39
2024/01/01 14:27:49;;;;;;;4.80;1.70;;;24.70;28.90;;;;;;4966870;28;45382;-41
2024/01/01 14:30:15;;;;;;;4.03;1.75;;;24.70;28.90;;;;;;4954306;28;45625;-40
2024/01/01 14:32:40;;;;;;;4.20;2.10;;;24.70;28.80;;;;;;4966222;28;45740;-38
2024/01/01 14:35:07;;;;;;;3.67;2.00;;;24.70;28.80;;;;;;4945262;28;45304;-48
2024/01/01 14:37:32;;;;;;;3.70;2.00;;;24.80;28.90;;;;;;4952586;28;45362;-45
2024/01/01 14:39:58;;;;;;;4.78;1.95;;;24.80;28.80;;;;;;4971698;28;45837;-43
2024/01/01 14:42:24;;;;;;;3.92;1.98;;;24.80;28.80;;;;;;4959788;28;45977;-43
2024/01/01 14:44:49;;;;;;;4.25;2.00;;;24.80;28.70;;;;;;4977404;28;46048;-44
2024/01/01 14:47:16;;;;;;;5.77;2.10;;;24.80;28.70;;;;;;4950056;28;46380;-45
2024/01/01 14:49:42;;;;;;;4.75;2.25;;;24.80;28.70;;;;;;4975016;28;45544;-42
2024/01/01 14:52:08;;;;;;;4.10;2.25;;;24.80;28.70;;;;;;4946258;28;48170;-39
2024/01/01 14:54:34;;;;;;;4.82;2.00;;;24.80;28.60;;;;;;4964254;28;45482;-40
2024/01/01 14:56:59;;;;;;;3.47;1.88;;;24.90;28.70;;;;;;4944429;28;45381;-39
2024/01/01 14:59:25;;;;;;;4.95;2.20;;;24.90;28.60;;;;;;4976362;28;45750;-40
2024/01/01 15:01:50;;;;;;;5.40;2.00;;;24.90;28.60;;;;;;4953836;28;45642;-39
2024/01/01 15:04:16;;;;;;;3.33;1.73;;;24.90;28.60;;;;;;4968789;28;46006;-40
2024/01/01 15:06:42;;;;;;;3.53;1.75;;;24.90;28.60;;;;;;4950468;28;46381;-39
2024/01/01 15:09:11;;;;;;;4.43;1.80;;;24.90;28.60;;;;;;4958792;28;48510;-39
2024/01/01 15:11:38;;;;;;;3.70;1.70;;;24.90;28.60;;;;;;4963883;28;45712;-41
2024/01/01 15:14:03;;;;;;;4.87;1.73;;;24.90;28.50;;;;;;4942757;28;46561;-39
2024/01/01 15:16:31;;;;;;;4.13;1.80;;;25.00;28.50;;;;;;4954828;28;45254;-40
2024/01/01 15:18:56;;;;;;;4.60;2.00;;;25.00;28.50;;;;;;4956966;28;45809;-40
2024/01/01 15:21:22;;;;;;;5.30;1.80;;;25.00;28.50;;;;;;4955090;28;45240;-40
2024/01/01 15:23:48;;;;;;;2.75;1.42;;;25.00;28.50;;;;;;4941349;28;52077;-39
2024/01/01 15:26:20;;;;;;;3.33;1.63;;;25.00;28.40;;;;;;4948724;28;45672;-39
2024/01/01 15:28:45;;;;;;;4.00;1.70;;;25.00;28.40;;;;;;4950109;28;45143;-41
2024/01/01 15:31:15;;;;;;;4.43;1.60;;;25.00;28.40;;;;;;4945330;28;45560;-39
2024/01/01 15:33:41;;;;;;;3.53;1.45;;;25.10;28.50;;;;;;4936083;28;46929;-39
2024/01/01 15:36:08;;;;;;;3.65;1.60;;;25.00;28.40;;;;;;4935295;28;47592;-44
2024/01/01 15:38:33;;;;;;;3.03;1.55;;;25.10;28.40;;;;;;4955711;28;45691;-45
2024/01/01 15:40:59;;;;;;;2.55;1.42;;;25.10;28.40;;;;;;4951231;28;45318;-44
2024/01/01 15:43:24;;;;;;;4.10;1.80;;;25.10;28.40;;;;;;4942259;28;45472;-44
2024/01/01 15:45:50;;;;;;;3.42;1.50;;;25.10;28.40;;;;;;4938490;28;45491;-44
2024/01/01 15:48:16;;;;;;;4.20;1.60;;;25.10;28.40;;;;;;4959414;28;45698;-48
2024/01/01 15:50:44;;;;;;;3.40;1.50;;;25.10;28.40;;;;;;4955262;28;45322;-44
2024/01/01 15:53:10;;;;;;;4.10;1.57;;;25.10;28.40;;;;;;4965406;28;45491;-44
2024/01/01 15:55:35;;;;;;;4.10;1.90;;;25.10;28.40;;;;;;4950328;28;45281;-44
2024/01/01 15:58:01;;;;;;;4.07;1.60;;;25.10;28.40;;;;;;4964573;28;45052;-42
2024/01/01 16:00:26;;;;;;;3.10;1.67;;;25.10;28.30;;;;;;4949864;28;45476;-45
2024/01/01 16:02:52;;;;;;;3.50;1.70;;;25.10;28.30;;;;;;4941068;28;45218;-45
2024/01/01 16:05:19;;;;;;;4.00;1.63;;;25.10;28.30;;;;;;4937365;28;45414;-46
2024/01/01 16:07:44;;;;;;;3.15;1.52;;;25.20;28.40;;;;;;4947543;28;45319;-45
2024/01/01 16:10:10;;;;;;;2.70;1.33;;;25.20;28.40;;;;;;4940193;28;46481;-48
2024/01/01 16:12:35;;;;;;;3.15;1.60;;;25.20;28.40;;;;;;4934765;28;45566;-46
2024/01/01 16:15:02;;;;;;;3.53;1.50;;;25.20;28.40;;;;;;4917431;28;46234;-43
2024/01/01 16:17:32;;;;;;;4.22;1.70;;;25.20;28.30;;;;;;4881126;28;46591;-42
2024/01/01 16:19:58;;;;;;;3.50;1.60;;;25.10;28.30;;;;;;4943412;28;46806;-45
2024/01/01 16:22:23;;;;;;;4.03;1.77;;;25.20;28.30;;;;;;4932423;28;45324;-45
2024/01/01 16:24:50;;;;;;;4.80;1.90;;;25.20;28.30;;;;;;4938458;28;45661;-44
2024/01/01 16:27:17;;;;;;;3.88;2.03;;;25.20;28.30;;;;;;4932144;28;45428;-43
2024/01/01 16:29:42;;;;;;;3.95;2.03;;;25.20;28.30;;;;;;4913056;28;45250;-45
2024/01/01 16:32:08;;;;;;;4.87;1.90;;;25.20;28.30;;;;;;4923357;28;45700;-45
2024/01/01 16:34:33;;;;;;;4.40;2.00;;;25.20;28.30;;;;;;4938191;28;45979;-43
2024/01/01 16:36:59;;;;;;;4.90;2.07;;;25.10;28.20;;;;;;4926879;28;45958;-45
2024/01/01 16:39:25;;;;;;;3.45;1.92;;;25.20;28.30;;;;;;4900109;28;46566;-45
2024/01/01 16:41:51;;;;;;;5.30;2.30;;;25.20;28.20;;;;;;4935624;28;45985;-45
2024/01/01 16:44:17;;;;;;;4.32;2.40;;;25.20;28.20;;;;;;4943890;28;45225;-45
2024/01/01 16:46:43;;;;;;;5.20;2.30;;;25.10;28.20;;;;;;4922688;28;45785;-45